createdAt,value
2023-05-24T00:00:45.449Z,5.77
2023-05-24T00:03:28.279Z,5.90
2023-05-24T00:06:12.704Z,5.40
2023-05-24T00:08:47.864Z,6.27
2023-05-24T00:11:19.980Z,5.10
2023-05-24T00:13:54.602Z,6.40
2023-05-24T00:16:28.596Z,5.70
2023-05-24T00:19:09.816Z,5.40
2023-05-24T00:21:42.764Z,6.40
2023-05-24T00:24:19.288Z,5.30
2023-05-24T00:26:49.971Z,6.03
2023-05-24T00:29:23.866Z,5.90
2023-05-24T00:31:54.968Z,5.60
2023-05-24T00:34:35.717Z,5.53
2023-05-24T00:37:07.276Z,5.40
2023-05-24T00:39:39.662Z,5.93
2023-05-24T00:42:17.519Z,5.80
2023-05-24T00:44:58.201Z,5.70
2023-05-24T00:47:30.010Z,6.87
2023-05-24T00:50:24.556Z,6.60
2023-05-24T00:52:56.451Z,5.60
2023-05-24T00:55:27.190Z,6.30
2023-05-24T00:58:00.110Z,6.37
2023-05-24T01:00:34.358Z,5.73
2023-05-24T01:03:14.239Z,5.33
2023-05-24T01:05:49.216Z,5.30
2023-05-24T01:09:13.298Z,6.33
2023-05-24T01:11:59.942Z,6.10
2023-05-24T01:14:42.903Z,6.33
2023-05-24T01:17:19.066Z,5.87
2023-05-24T01:20:04.718Z,5.33
2023-05-24T01:23:19.664Z,5.90
2023-05-24T01:26:27.341Z,5.70
2023-05-24T01:29:02.911Z,5.30
2023-05-24T01:31:35.304Z,5.03
2023-05-24T01:34:06.055Z,6.87
2023-05-24T01:36:39.743Z,6.07
2023-05-24T01:39:24.582Z,6.47
2023-05-24T01:42:18.063Z,5.90
2023-05-24T01:45:06.662Z,5.60
2023-05-24T01:47:57.024Z,6.00
2023-05-24T01:50:34.770Z,6.17
2023-05-24T01:53:10.304Z,5.90
2023-05-24T01:55:43.497Z,5.93
2023-05-24T01:58:19.385Z,5.83
2023-05-24T02:00:57.524Z,6.30
2023-05-24T02:03:36.962Z,6.23
2023-05-24T02:06:17.559Z,5.70
2023-05-24T02:08:47.071Z,5.90
2023-05-24T02:11:20.899Z,6.10
2023-05-24T02:13:54.514Z,6.77
2023-05-24T02:16:29.298Z,7.07
2023-05-24T02:19:04.997Z,6.40
2023-05-24T02:21:34.834Z,6.90
2023-05-24T02:24:10.524Z,5.73
2023-05-24T02:26:49.302Z,6.50
2023-05-24T02:29:24.837Z,6.13
2023-05-24T02:31:58.996Z,6.00
2023-05-24T02:34:33.558Z,6.77
2023-05-24T02:37:07.859Z,5.53
2023-05-24T02:39:41.777Z,6.30
2023-05-24T02:42:11.490Z,6.17
2023-05-24T02:44:43.476Z,6.77
2023-05-24T02:47:34.143Z,6.10
2023-05-24T02:50:02.898Z,6.20
2023-05-24T02:52:33.488Z,5.30
2023-05-24T02:55:09.132Z,5.93
2023-05-24T02:57:41.410Z,5.90
2023-05-24T03:00:26.305Z,6.50
2023-05-24T03:03:05.655Z,5.77
2023-05-24T03:05:34.151Z,5.23
2023-05-24T03:08:08.907Z,6.50
2023-05-24T03:10:42.724Z,6.00
2023-05-24T03:13:19.484Z,6.17
2023-05-24T03:16:00.803Z,6.30
2023-05-24T03:18:37.165Z,5.30
2023-05-24T03:21:14.610Z,5.60
2023-05-24T03:23:49.538Z,6.37
2023-05-24T03:26:22.814Z,6.63
2023-05-24T03:29:04.837Z,6.20
2023-05-24T03:31:42.181Z,6.00
2023-05-24T03:34:14.039Z,5.30
2023-05-24T03:36:48.931Z,5.57
2023-05-24T03:39:21.358Z,5.47
2023-05-24T03:42:07.582Z,6.27
2023-05-24T03:44:49.731Z,5.73
2023-05-24T03:47:23.891Z,5.37
2023-05-24T03:49:57.818Z,5.33
2023-05-24T03:52:28.785Z,6.17
2023-05-24T03:54:59.564Z,6.57
2023-05-24T03:57:34.987Z,4.90
2023-05-24T04:00:07.221Z,4.60
2023-05-24T04:03:09.354Z,5.30
2023-05-24T04:05:48.647Z,5.80
2023-05-24T04:08:23.718Z,6.40
2023-05-24T04:10:54.959Z,5.40
2023-05-24T04:13:26.702Z,5.37
2023-05-24T04:15:57.420Z,4.40
2023-05-24T04:18:25.993Z,4.80
2023-05-24T04:21:08.944Z,4.60
2023-05-24T04:23:43.450Z,4.83
2023-05-24T04:26:25.964Z,5.40
2023-05-24T04:29:02.548Z,4.73
2023-05-24T04:31:36.167Z,4.67
2023-05-24T04:34:12.039Z,4.53
2023-05-24T04:36:49.394Z,4.77
2023-05-24T04:39:27.229Z,4.23
2023-05-24T04:42:00.692Z,4.30
2023-05-24T04:44:33.685Z,5.13
2023-05-24T04:47:12.942Z,5.23
2023-05-24T04:49:46.768Z,5.13
2023-05-24T04:52:24.947Z,4.43
2023-05-24T04:54:58.225Z,5.10
2023-05-24T04:57:28.687Z,4.50
2023-05-24T05:00:01.274Z,4.40
2023-05-24T05:02:31.189Z,4.13
2023-05-24T05:05:08.875Z,4.70
2023-05-24T05:07:48.457Z,4.10
2023-05-24T05:10:23.906Z,4.73
2023-05-24T05:12:54.885Z,4.60
2023-05-24T05:15:29.106Z,4.90
2023-05-24T05:18:13.874Z,5.13
2023-05-24T05:20:51.345Z,4.50
2023-05-24T05:23:29.780Z,4.23
2023-05-24T05:26:01.694Z,5.17
2023-05-24T05:28:32.419Z,4.90
2023-05-24T05:31:09.308Z,4.93
2023-05-24T05:33:43.581Z,4.30
2023-05-24T05:36:19.878Z,5.27
2023-05-24T05:38:51.110Z,5.20
2023-05-24T05:41:22.754Z,4.60
2023-05-24T05:43:53.108Z,4.50
2023-05-24T05:46:30.724Z,4.67
2023-05-24T05:49:05.155Z,5.33
2023-05-24T05:51:38.612Z,5.43
2023-05-24T05:54:14.891Z,4.50
2023-05-24T05:56:50.652Z,5.30
2023-05-24T05:59:21.350Z,5.43
2023-05-24T06:01:52.706Z,4.67
2023-05-24T06:04:25.192Z,4.30
2023-05-24T06:07:02.900Z,4.10
2023-05-24T06:09:36.982Z,4.57
2023-05-24T06:12:08.025Z,4.73
2023-05-24T06:14:39.476Z,4.70
2023-05-24T06:17:11.138Z,4.43
2023-05-24T06:19:43.763Z,4.33
2023-05-24T06:22:21.088Z,5.13
2023-05-24T06:24:57.599Z,5.00
2023-05-24T06:27:28.158Z,4.43
2023-05-24T06:30:01.540Z,4.80
2023-05-24T06:32:32.421Z,4.90
2023-05-24T06:35:03.114Z,4.70
2023-05-24T06:37:36.787Z,5.20
2023-05-24T06:40:13.217Z,4.70
2023-05-24T06:42:44.311Z,4.33
2023-05-24T06:45:25.064Z,5.20
2023-05-24T06:48:05.178Z,5.37
2023-05-24T06:50:45.233Z,5.23
2023-05-24T06:53:19.521Z,5.50
2023-05-24T06:55:58.081Z,5.30
2023-05-24T06:58:30.163Z,4.90
2023-05-24T07:00:59.902Z,5.20
2023-05-24T07:03:40.986Z,5.17
2023-05-24T07:06:16.372Z,4.63
2023-05-24T07:08:49.992Z,5.10
2023-05-24T07:11:22.989Z,4.70
2023-05-24T07:14:00.766Z,4.87
2023-05-24T07:16:37.845Z,5.00
2023-05-24T07:19:16.050Z,5.10
2023-05-24T07:21:49.437Z,4.70
2023-05-24T07:24:24.385Z,5.00
2023-05-24T07:27:00.325Z,5.03
2023-05-24T07:29:39.905Z,5.30
2023-05-24T07:32:13.981Z,4.67
2023-05-24T07:34:54.054Z,4.57
2023-05-24T07:37:25.490Z,4.87
2023-05-24T07:39:59.900Z,5.07
2023-05-24T07:42:49.958Z,5.10
2023-05-24T07:45:29.189Z,5.70
2023-05-24T07:48:06.835Z,5.23
2023-05-24T07:50:38.829Z,5.20
2023-05-24T07:53:19.168Z,4.53
2023-05-24T07:56:01.349Z,5.33
2023-05-24T07:58:35.885Z,5.10
2023-05-24T08:01:22.138Z,4.43
2023-05-24T08:03:59.736Z,5.20
2023-05-24T08:06:33.082Z,4.77
2023-05-24T08:09:18.490Z,5.23
2023-05-24T08:11:50.153Z,3.90
2023-05-24T08:14:22.752Z,4.93
2023-05-24T08:16:53.818Z,4.17
2023-05-24T08:19:38.030Z,4.30
2023-05-24T08:22:19.516Z,4.57
2023-05-24T08:25:02.470Z,4.87
2023-05-24T08:27:37.203Z,5.03
2023-05-24T08:30:22.777Z,4.30
2023-05-24T08:33:00.836Z,4.87
2023-05-24T08:35:32.431Z,4.00
2023-05-24T08:38:06.205Z,3.83
2023-05-24T08:40:41.753Z,4.50
2023-05-24T08:43:14.992Z,4.60
2023-05-24T08:46:04.832Z,4.47
2023-05-24T08:48:47.870Z,3.70
2023-05-24T08:51:18.924Z,4.90
2023-05-24T08:53:59.025Z,4.40
2023-05-24T08:56:39.055Z,3.83
2023-05-24T08:59:13.982Z,4.80
2023-05-24T09:01:45.602Z,4.60
2023-05-24T09:04:18.778Z,3.97
2023-05-24T09:06:52.304Z,3.80
2023-05-24T09:09:28.407Z,3.77
2023-05-24T09:12:07.839Z,4.67
2023-05-24T09:14:38.413Z,3.90
2023-05-24T09:17:21.412Z,3.63
2023-05-24T09:19:54.307Z,4.10
2023-05-24T09:22:40.775Z,4.47
2023-05-24T09:25:12.009Z,4.10
2023-05-24T09:27:52.808Z,4.53
2023-05-24T09:30:25.999Z,3.73
2023-05-24T09:33:14.134Z,3.53
2023-05-24T09:35:48.812Z,3.20
2023-05-24T09:38:23.109Z,3.73
2023-05-24T09:41:09.320Z,2.90
2023-05-24T09:43:55.752Z,3.23
2023-05-24T09:46:29.122Z,3.57
2023-05-24T09:49:24.989Z,3.03
2023-05-24T09:51:58.422Z,3.13
2023-05-24T09:54:34.786Z,3.33
2023-05-24T09:57:09.935Z,3.70
2023-05-24T09:59:43.635Z,3.60
2023-05-24T10:02:14.533Z,3.20
2023-05-24T10:04:51.880Z,3.20
2023-05-24T10:07:34.775Z,3.27
2023-05-24T10:10:10.277Z,2.87
2023-05-24T10:12:46.456Z,2.70
2023-05-24T10:15:18.828Z,3.00
2023-05-24T10:17:58.153Z,3.10
2023-05-24T10:20:46.789Z,3.40
2023-05-24T10:26:35.375Z,3.30
2023-05-24T10:29:14.937Z,3.73
2023-05-24T10:31:47.906Z,2.87
2023-05-24T10:34:22.642Z,3.13
2023-05-24T10:37:02.569Z,3.10
2023-05-24T10:39:40.053Z,2.70
2023-05-24T10:42:31.312Z,3.67
2023-05-24T10:46:01.075Z,2.93
2023-05-24T10:48:42.215Z,2.60
2023-05-24T10:51:38.176Z,3.10
2023-05-24T10:57:25.883Z,2.73
2023-05-24T11:00:02.414Z,2.77
2023-05-24T11:02:43.993Z,3.07
2023-05-24T11:05:15.934Z,3.60
2023-05-24T11:07:59.654Z,3.10
2023-05-24T11:10:49.606Z,2.90
2023-05-24T11:13:26.970Z,3.20
2023-05-24T11:16:04.230Z,3.63
2023-05-24T11:18:41.488Z,3.30
2023-05-24T11:21:16.789Z,3.40
2023-05-24T11:23:49.916Z,3.67
2023-05-24T11:26:33.385Z,3.30
2023-05-24T11:29:07.235Z,2.93
2023-05-24T11:31:44.700Z,3.53
2023-05-24T11:34:18.312Z,3.27
2023-05-24T11:36:49.062Z,3.43
2023-05-24T11:39:23.566Z,3.00
2023-05-24T11:41:58.935Z,3.03
2023-05-24T11:44:32.261Z,2.87
2023-05-24T11:47:07.487Z,3.03
2023-05-24T11:49:47.492Z,3.77
2023-05-24T11:52:20.563Z,2.80
2023-05-24T11:54:57.479Z,3.10
2023-05-24T11:57:43.752Z,3.40
2023-05-24T12:00:20.290Z,2.97
2023-05-24T12:02:51.185Z,3.00
2023-05-24T12:05:25.740Z,3.13
2023-05-24T12:08:18.012Z,3.60
2023-05-24T12:10:57.572Z,3.37
2023-05-24T12:13:34.463Z,3.70
2023-05-24T12:16:08.217Z,3.30
2023-05-24T12:18:48.452Z,4.47
2023-05-24T12:21:30.290Z,2.97
2023-05-24T12:24:00.945Z,3.70
2023-05-24T12:26:33.189Z,3.53
2023-05-24T12:29:12.316Z,4.20
2023-05-24T12:31:45.982Z,3.80
2023-05-24T12:34:17.847Z,3.30
2023-05-24T12:36:55.469Z,3.77
2023-05-24T12:39:33.680Z,3.50
2023-05-24T12:42:09.548Z,3.43
2023-05-24T12:44:52.743Z,3.70
2023-05-24T12:47:24.175Z,3.47
2023-05-24T12:49:55.787Z,2.90
2023-05-24T12:52:36.686Z,2.97
2023-05-24T12:55:16.763Z,3.43
2023-05-24T12:57:55.930Z,4.80
2023-05-24T13:00:47.243Z,3.90
2023-05-24T13:03:21.739Z,3.50
2023-05-24T13:05:54.939Z,2.57
2023-05-24T13:08:30.911Z,3.30
2023-05-24T13:11:03.997Z,3.60
2023-05-24T13:13:47.522Z,3.57
2023-05-24T13:16:20.135Z,3.03
2023-05-24T13:18:48.917Z,3.33
2023-05-24T13:21:23.590Z,3.47
2023-05-24T13:23:58.386Z,3.20
2023-05-24T13:26:33.644Z,3.50
2023-05-24T13:31:53.089Z,3.30
2023-05-24T13:34:29.453Z,6.00
2023-05-24T13:37:03.354Z,6.60
2023-05-24T13:39:35.509Z,6.30
2023-05-24T13:42:14.927Z,3.83
2023-05-24T13:44:49.743Z,3.73
2023-05-24T13:47:39.308Z,4.20
2023-05-24T13:50:17.261Z,3.77
2023-05-24T13:52:56.250Z,3.80
2023-05-24T13:55:28.262Z,3.80
2023-05-24T13:58:02.161Z,4.00
2023-05-24T14:00:33.778Z,3.50
2023-05-24T14:03:08.632Z,3.87
2023-05-24T14:05:41.480Z,3.37
2023-05-24T14:08:15.722Z,3.30
2023-05-24T14:10:56.010Z,3.70
2023-05-24T14:14:32.882Z,2.90
2023-05-24T14:16:25.393Z,3.40
2023-05-24T14:19:02.251Z,2.60
2023-05-24T14:21:44.080Z,3.40
2023-05-24T14:24:17.873Z,4.40
2023-05-24T14:26:55.899Z,4.07
2023-05-24T14:29:38.184Z,3.70
2023-05-24T14:32:14.516Z,3.43
2023-05-24T14:34:53.405Z,4.17
2023-05-24T14:37:30.874Z,3.90
2023-05-24T14:40:01.314Z,3.80
2023-05-24T14:42:35.015Z,3.97
2023-05-24T14:45:16.730Z,4.60
2023-05-24T14:47:50.612Z,3.70
2023-05-24T14:50:28.338Z,3.50
2023-05-24T14:53:03.433Z,3.53
2023-05-24T14:55:38.424Z,3.40
2023-05-24T14:58:17.435Z,4.03
2023-05-24T15:00:54.947Z,3.43
2023-05-24T15:03:26.725Z,3.60
2023-05-24T15:06:02.620Z,3.70
2023-05-24T15:08:36.100Z,3.07
2023-05-24T15:11:14.898Z,3.20
2023-05-24T15:13:48.381Z,3.50
2023-05-24T15:16:22.369Z,3.33
2023-05-24T15:18:59.054Z,3.67
2023-05-24T15:21:47.600Z,3.47
2023-05-24T15:24:26.807Z,3.27
2023-05-24T15:27:01.799Z,4.10
2023-05-24T15:29:46.515Z,3.50
2023-05-24T15:32:23.439Z,4.10
2023-05-24T15:34:59.919Z,3.60
2023-05-24T15:37:34.653Z,4.27
2023-05-24T15:40:07.961Z,4.40
2023-05-24T15:42:53.322Z,4.50
2023-05-24T15:45:21.932Z,3.97
2023-05-24T15:48:01.964Z,4.40
2023-05-24T15:50:54.064Z,4.03
2023-05-24T15:53:31.705Z,4.30
2023-05-24T15:56:11.981Z,4.07
2023-05-24T15:58:46.070Z,4.23
2023-05-24T16:01:26.365Z,5.00
2023-05-24T16:04:00.634Z,4.07
2023-05-24T16:06:35.052Z,5.27
2023-05-24T16:09:12.652Z,4.63
2023-05-24T16:11:50.255Z,4.30
2023-05-24T16:14:24.735Z,4.37
2023-05-24T16:16:58.866Z,5.10
2023-05-24T16:19:32.282Z,5.30
2023-05-24T16:22:03.103Z,7.73
2023-05-24T16:24:38.707Z,5.03
2023-05-24T16:27:13.607Z,4.47
2023-05-24T16:29:45.519Z,4.30
2023-05-24T16:32:27.012Z,4.50
2023-05-24T16:34:59.196Z,4.20
2023-05-24T16:37:40.575Z,4.80
2023-05-24T16:40:18.115Z,4.00
2023-05-24T16:42:55.646Z,4.50
2023-05-24T16:45:36.228Z,4.07
2023-05-24T16:48:09.495Z,4.40
2023-05-24T16:50:45.112Z,5.10
2023-05-24T16:53:18.343Z,5.60
2023-05-24T16:56:03.192Z,3.90
2023-05-24T16:58:37.881Z,4.70
2023-05-24T17:01:13.555Z,4.47
2023-05-24T17:03:45.446Z,4.40
2023-05-24T17:06:17.536Z,4.30
2023-05-24T17:08:53.459Z,4.30
2023-05-24T17:11:25.775Z,3.83
2023-05-24T17:13:59.862Z,4.73
2023-05-24T17:16:39.318Z,4.30
2023-05-24T17:19:15.701Z,3.57
2023-05-24T17:21:59.384Z,3.97
2023-05-24T17:24:35.846Z,3.87
2023-05-24T17:27:13.947Z,3.93
2023-05-24T17:29:47.797Z,4.23
2023-05-24T17:32:26.166Z,3.90
2023-05-24T17:35:05.721Z,3.60
2023-05-24T17:37:38.463Z,4.03
2023-05-24T17:40:16.227Z,3.47
2023-05-24T17:42:56.010Z,4.27
2023-05-24T17:45:35.627Z,4.27
2023-05-24T17:48:07.075Z,3.23
2023-05-24T17:50:37.012Z,4.10
2023-05-24T17:53:29.951Z,4.47
2023-05-24T17:56:01.130Z,5.37
2023-05-24T17:58:41.298Z,3.97
2023-05-24T18:01:19.862Z,3.87
2023-05-24T18:03:59.426Z,4.27
2023-05-24T18:06:30.032Z,3.73
2023-05-24T18:08:58.999Z,4.60
2023-05-24T18:11:31.293Z,4.33
2023-05-24T18:14:04.634Z,4.07
2023-05-24T18:16:35.394Z,4.33
2023-05-24T18:19:07.441Z,4.10
2023-05-24T18:21:46.650Z,4.50
2023-05-24T18:24:22.746Z,4.10
2023-05-24T18:26:55.599Z,4.20
2023-05-24T18:29:34.739Z,4.20
2023-05-24T18:32:10.413Z,4.10
2023-05-24T18:34:38.716Z,4.07
2023-05-24T18:37:16.313Z,4.47
2023-05-24T18:39:50.049Z,4.47
2023-05-24T18:42:23.332Z,4.03
2023-05-24T18:44:58.251Z,4.80
2023-05-24T18:47:32.891Z,4.30
2023-05-24T18:50:03.519Z,4.37
2023-05-24T18:52:45.210Z,4.50
2023-05-24T18:55:18.305Z,6.30
2023-05-24T18:57:53.944Z,4.90
2023-05-24T19:00:29.876Z,4.90
2023-05-24T19:03:13.605Z,4.90
2023-05-24T19:05:47.409Z,4.90
2023-05-24T19:08:19.283Z,5.00
2023-05-24T19:10:51.231Z,4.97
2023-05-24T19:13:31.041Z,5.80
2023-05-24T19:16:03.084Z,5.80
2023-05-24T19:18:37.680Z,6.90
2023-05-24T19:21:18.316Z,5.50
2023-05-24T19:23:47.648Z,7.00
2023-05-24T19:26:23.361Z,5.83
2023-05-24T19:28:57.225Z,7.60
2023-05-24T19:31:32.094Z,6.70
2023-05-24T19:34:05.804Z,7.70
2023-05-24T19:36:43.983Z,6.57
2023-05-24T19:39:21.918Z,9.67
2023-05-24T19:41:56.128Z,5.60
2023-05-24T19:44:29.777Z,5.93
2023-05-24T19:47:04.133Z,4.30
2023-05-24T19:49:43.062Z,4.73
2023-05-24T19:52:17.182Z,4.20
2023-05-24T19:54:48.062Z,3.90
2023-05-24T19:57:22.328Z,4.60
2023-05-24T19:59:55.549Z,3.73
2023-05-24T20:02:28.227Z,3.70
2023-05-24T20:04:57.829Z,4.23
2023-05-24T20:07:31.986Z,4.03
2023-05-24T20:10:01.015Z,4.00
2023-05-24T20:12:36.406Z,4.33
2023-05-24T20:15:16.344Z,3.70
2023-05-24T20:17:54.133Z,3.90
2023-05-24T20:20:29.505Z,4.07
2023-05-24T20:23:05.768Z,3.80
2023-05-24T20:25:40.619Z,3.90
2023-05-24T20:28:29.396Z,4.10
2023-05-24T20:31:03.055Z,4.40
2023-05-24T20:33:44.769Z,3.90
2023-05-24T20:36:16.037Z,3.40
2023-05-24T20:38:48.602Z,4.10
2023-05-24T20:41:19.863Z,4.60
2023-05-24T20:43:52.834Z,4.60
2023-05-24T20:46:24.022Z,4.10
2023-05-24T20:48:55.508Z,4.20
2023-05-24T20:51:30.923Z,4.10
2023-05-24T20:54:11.293Z,4.33
2023-05-24T20:56:44.517Z,4.20
2023-05-24T20:59:14.420Z,4.53
2023-05-24T21:01:47.621Z,4.20
2023-05-24T21:04:20.563Z,4.20
2023-05-24T21:06:54.982Z,4.87
2023-05-24T21:09:32.116Z,4.13
2023-05-24T21:12:11.331Z,4.23
2023-05-24T21:14:43.206Z,4.50
2023-05-24T21:17:24.738Z,3.47
2023-05-24T21:20:04.625Z,4.20
2023-05-24T21:22:46.342Z,4.27
2023-05-24T21:25:24.554Z,4.10
2023-05-24T21:28:07.065Z,4.40
2023-05-24T21:30:58.608Z,4.27
2023-05-24T21:33:37.772Z,4.13
2023-05-24T21:36:22.184Z,4.90
2023-05-24T21:38:56.618Z,3.90
2023-05-24T21:41:32.129Z,4.23
2023-05-24T21:44:12.630Z,3.80
2023-05-24T21:46:47.572Z,3.90
2023-05-24T21:49:24.930Z,3.97
2023-05-24T21:52:35.244Z,4.33
2023-05-24T21:55:11.233Z,3.30
2023-05-24T21:57:51.416Z,4.80
2023-05-24T22:00:24.580Z,4.40
2023-05-24T22:02:52.887Z,4.90
2023-05-24T22:05:28.206Z,3.83
2023-05-24T22:08:06.170Z,4.93
2023-05-24T22:10:39.532Z,4.87
2023-05-24T22:13:20.313Z,4.20
2023-05-24T22:16:00.605Z,4.27
2023-05-24T22:18:33.876Z,4.37
2023-05-24T22:21:09.355Z,4.00
2023-05-24T22:23:43.686Z,4.60
2023-05-24T22:26:15.123Z,3.63
2023-05-24T22:29:12.056Z,3.90
2023-05-24T22:31:52.185Z,4.00
2023-05-24T22:34:32.602Z,4.73
2023-05-24T22:37:04.165Z,4.03
2023-05-24T22:39:44.365Z,3.90
2023-05-24T22:42:21.159Z,3.93
2023-05-24T22:44:52.944Z,4.30
2023-05-24T22:47:26.968Z,4.97
2023-05-24T22:49:58.159Z,4.40
2023-05-24T22:52:34.984Z,4.00
2023-05-24T22:55:17.182Z,4.03
2023-05-24T22:57:49.873Z,4.17
2023-05-24T23:00:29.621Z,3.90
2023-05-24T23:03:06.642Z,4.70
2023-05-24T23:05:45.383Z,4.10
2023-05-24T23:08:21.232Z,5.13
2023-05-24T23:10:53.104Z,4.00
2023-05-24T23:13:23.648Z,4.27
2023-05-24T23:16:04.983Z,3.80
2023-05-24T23:18:39.264Z,4.10
2023-05-24T23:21:16.848Z,5.77
2023-05-24T23:23:57.274Z,4.83
2023-05-24T23:26:31.267Z,4.73
2023-05-24T23:29:16.388Z,4.43
2023-05-24T23:31:49.691Z,4.53
2023-05-24T23:34:30.063Z,3.77
2023-05-24T23:37:06.665Z,3.40
2023-05-24T23:39:41.893Z,4.30
2023-05-24T23:42:25.075Z,4.37
2023-05-24T23:45:00.021Z,4.63
2023-05-24T23:47:29.319Z,4.60
2023-05-24T23:50:10.163Z,4.30
2023-05-24T23:52:43.928Z,4.53
2023-05-24T23:55:25.547Z,4.80
2023-05-24T23:58:03.141Z,4.67
